Time;durP1;ratioP1;P1;durP2;ratioP2;P2;SDS_P1;SDS_P2;PMS_P1;PMS_P2;Temp;Humidity;BMP_temperature;BMP_pressure;BME280_temperature;BME280_humidity;BME280_pressure;Samples;Min_cycle;Max_cycle;Signal;HPM_P1;HPM_P2
2021/03/15 00:01:19;32226.00;0.11;56.44;0.00;0.00;0.62;;;;;8.30;1.00;;;;;;2273270;61;956;-87
2021/03/15 00:03:45;60447.00;0.20;105.25;0.00;0.00;0.62;;;;;8.00;1.00;;;;;;2269917;61;1374;-87
2021/03/15 00:06:12;0.00;0.00;0.62;0.00;0.00;0.62;;;;;7.90;1.00;;;;;;2269904;61;1993;-86
2021/03/15 00:08:38;0.00;0.00;0.62;0.00;0.00;0.62;;;;;7.80;1.00;;;;;;2272469;61;1002;-87
2021/03/15 00:11:05;0.00;0.00;0.62;0.00;0.00;0.62;;;;;8.10;1.00;;;;;;2262482;61;988;-87
2021/03/15 00:13:32;0.00;0.00;0.62;0.00;0.00;0.62;;;;;7.90;1.00;;;;;;2272462;61;1419;-86
2021/03/15 00:15:59;214635.00;0.72;371.11;6580.00;0.02;12.02;;;;;7.50;1.00;;;;;;2272510;61;942;-87
2021/03/15 00:18:27;22076.00;0.07;38.86;0.00;0.00;0.62;;;;;7.20;1.00;;;;;;2272536;61;1013;-87
2021/03/15 00:20:53;36370.00;0.12;63.61;0.00;0.00;0.62;;;;;7.00;1.00;;;;;;2272465;61;1019;-87
2021/03/15 00:23:20;0.00;0.00;0.62;0.00;0.00;0.62;;;;;7.20;1.00;;;;;;2269069;61;1023;-87
2021/03/15 00:25:46;28440.00;0.09;49.88;0.00;0.00;0.62;;;;;7.40;1.00;;;;;;2260749;61;1339;-87
2021/03/15 00:28:13;90201.00;0.30;156.65;0.00;0.00;0.62;;;;;7.40;1.00;;;;;;2256254;61;1939;-89
2021/03/15 00:30:40;18012.00;0.06;31.83;0.00;0.00;0.62;;;;;7.50;1.00;;;;;;2252255;61;1534;-86
2021/03/15 00:33:07;1034484.00;3.45;1793.64;520016.00;1.73;896.29;;;;;7.60;1.00;;;;;;2252271;61;974;-87
2021/03/15 00:35:34;47270.00;0.16;82.46;0.00;0.00;0.62;;;;;6.90;1.00;;;;;;2252312;61;1440;-86
2021/03/15 00:38:01;0.00;0.00;0.62;0.00;0.00;0.62;;;;;6.80;1.00;;;;;;2251847;61;1096;-86
2021/03/15 00:40:28;117047712.00;390.16;64955184.00;0.00;0.00;0.62;;;;;6.90;1.00;;;;;;2252323;61;948;-87
2021/03/15 00:42:57;13115.00;0.04;23.35;0.00;0.00;0.62;;;;;7.10;1.00;;;;;;2252807;61;1111;-87
2021/03/15 00:45:26;93896.00;0.31;163.03;0.00;0.00;0.62;;;;;6.70;1.00;;;;;;2253466;61;1362;-87
2021/03/15 00:47:53;0.00;0.00;0.62;0.00;0.00;0.62;;;;;6.70;1.00;;;;;;2262122;61;1923;-88
2021/03/15 00:50:27;2001.00;0.01;4.09;0.00;0.00;0.62;;;;;7.00;1.00;;;;;;2266416;61;957;-88
2021/03/15 00:52:55;29890.00;0.10;52.39;0.00;0.00;0.62;;;;;7.10;1.00;;;;;;2276893;61;991;-86
2021/03/15 00:55:21;13049.00;0.04;23.23;0.00;0.00;0.62;;;;;7.00;1.00;;;;;;2273092;61;1453;-87
2021/03/15 00:57:49;148.00;0.00;0.88;0.00;0.00;0.62;;;;;7.10;1.00;;;;;;2272260;61;971;-89
2021/03/15 01:00:25;0.00;0.00;0.62;0.00;0.00;0.62;;;;;7.30;1.00;;;;;;2268957;61;941;-88
2021/03/15 01:02:51;9650.00;0.03;17.34;0.00;0.00;0.62;;;;;7.60;1.00;;;;;;2260115;61;988;-88
2021/03/15 01:05:22;35400.00;0.12;61.93;0.00;0.00;0.62;;;;;7.80;1.00;;;;;;2253604;61;1425;-86
2021/03/15 01:07:50;177939.00;0.59;307.94;0.00;0.00;0.62;;;;;7.60;1.00;;;;;;2253630;61;1996;-86
2021/03/15 01:10:19;60812.00;0.20;105.88;0.00;0.00;0.62;;;;;7.20;1.00;;;;;;2260223;61;1041;-87
2021/03/15 01:12:45;0.00;0.00;0.62;0.00;0.00;0.62;;;;;7.10;1.00;;;;;;2260279;61;1011;-88
2021/03/15 01:15:13;4691.00;0.02;8.75;0.00;0.00;0.62;;;;;7.00;1.00;;;;;;2260672;61;1418;-87
2021/03/15 01:17:40;0.00;0.00;0.62;0.00;0.00;0.62;;;;;7.30;1.00;;;;;;2260893;61;978;-87
2021/03/15 01:20:08;63774.00;0.21;111.00;0.00;0.00;0.62;;;;;7.10;1.00;;;;;;2269599;61;1025;-87
2021/03/15 01:22:35;184629.00;0.62;319.46;18317.00;0.06;32.36;;;;;7.40;1.00;;;;;;2275928;61;1026;-86
2021/03/15 01:25:03;0.00;0.00;0.62;0.00;0.00;0.62;;;;;7.50;1.00;;;;;;2269683;61;1253;-88
2021/03/15 01:27:29;0.00;0.00;0.62;0.00;0.00;0.62;;;;;7.70;1.00;;;;;;2276751;61;1919;-89
2021/03/15 01:29:56;5994.00;0.02;11.01;0.00;0.00;0.62;;;;;8.00;1.00;;;;;;2269706;61;930;-88
2021/03/15 01:32:23;51639.00;0.17;90.02;0.00;0.00;0.62;;;;;7.80;1.00;;;;;;2276232;61;1665;-87
2021/03/15 01:34:50;6863.00;0.02;12.51;0.00;0.00;0.62;;;;;7.30;1.00;;;;;;2276312;61;1306;-86
2021/03/15 01:37:16;52771.00;0.18;91.98;0.00;0.00;0.62;;;;;7.20;1.00;;;;;;2272174;61;935;-86
2021/03/15 01:39:43;0.00;0.00;0.62;0.00;0.00;0.62;;;;;6.90;1.00;;;;;;2272229;61;1048;-86
2021/03/15 01:42:10;22031.00;0.07;38.79;0.00;0.00;0.62;;;;;6.40;1.00;;;;;;2272249;61;1091;-86
2021/03/15 01:44:38;0.00;0.00;0.62;0.00;0.00;0.62;;;;;6.60;1.00;;;;;;2268741;61;1332;-86
2021/03/15 01:47:04;162082.00;0.54;280.63;19928.00;0.07;35.15;;;;;7.10;1.00;;;;;;2262175;61;1916;-86
2021/03/15 01:49:31;0.00;0.00;0.62;0.00;0.00;0.62;;;;;7.10;1.00;;;;;;2271240;61;1870;-86
2021/03/15 01:51:57;58752.00;0.20;102.32;0.00;0.00;0.62;;;;;7.10;1.00;;;;;;2268189;61;1019;-87
2021/03/15 01:54:26;11497.00;0.04;20.54;0.00;0.00;0.62;;;;;7.70;1.00;;;;;;2268692;61;1337;-86
2021/03/15 01:56:52;0.00;0.00;0.62;0.00;0.00;0.62;;;;;8.20;1.00;;;;;;2272926;61;946;-87
2021/03/15 01:59:21;0.00;0.00;0.62;0.00;0.00;0.62;;;;;8.30;1.00;;;;;;2276218;61;1127;-87
2021/03/15 02:01:47;97287.00;0.32;168.89;0.00;0.00;0.62;;;;;7.80;1.00;;;;;;2276660;61;999;-87
2021/03/15 02:04:15;0.00;0.00;0.62;0.00;0.00;0.62;;;;;7.80;1.00;;;;;;2276599;61;1450;-87
2021/03/15 02:06:42;83430.00;0.28;144.96;0.00;0.00;0.62;;;;;7.90;1.00;;;;;;2269443;61;1990;-86
2021/03/15 02:09:08;28536.00;0.10;50.05;0.00;0.00;0.62;;;;;7.80;1.00;;;;;;2272808;61;1033;-86
2021/03/15 02:11:48;0.00;0.00;0.62;0.00;0.00;0.62;;;;;7.30;1.00;;;;;;2276376;61;1817;-86
2021/03/15 02:14:28;107024.00;0.36;185.69;39873.00;0.13;69.67;;;;;7.60;1.00;;;;;;2272709;61;1436;-86
2021/03/15 02:17:03;33805.00;0.11;59.17;0.00;0.00;0.62;;;;;7.90;1.00;;;;;;2276599;61;1093;-86
2021/03/15 02:20:05;117779.00;0.39;204.25;0.00;0.00;0.62;;;;;7.50;1.00;;;;;;2276648;61;1299;-86
2021/03/15 02:22:38;11217.00;0.04;20.06;0.00;0.00;0.62;;;;;7.70;1.00;;;;;;2276498;61;1088;-87
2021/03/15 02:25:40;12159.00;0.04;21.69;0.00;0.00;0.62;;;;;7.70;1.00;;;;;;2266163;61;1286;-87
2021/03/15 02:28:29;0.00;0.00;0.62;0.00;0.00;0.62;;;;;8.00;1.00;;;;;;2248548;61;1916;-87
2021/03/15 02:31:36;155667.00;0.52;269.57;0.00;0.00;0.62;;;;;7.70;1.00;;;;;;2251957;61;1009;-87
2021/03/15 02:34:39;0.00;0.00;0.62;0.00;0.00;0.62;;;;;7.40;1.00;;;;;;2251669;61;1274;-87
2021/03/15 02:37:09;0.00;0.00;0.62;0.00;0.00;0.62;;;;;7.90;1.00;;;;;;2252066;61;1023;-87
2021/03/15 02:39:39;0.00;0.00;0.62;0.00;0.00;0.62;;;;;8.20;1.00;;;;;;2251931;61;1142;-87
2021/03/15 02:42:12;111476.00;0.37;193.38;0.00;0.00;0.62;;;;;8.30;1.00;;;;;;2252021;61;1071;-87
2021/03/15 02:44:40;381354.00;1.27;657.75;133676.00;0.45;231.67;;;;;8.50;1.00;;;;;;2251931;61;1530;-87
2021/03/15 02:47:12;102930.00;0.34;178.63;0.00;0.00;0.62;;;;;8.30;1.00;;;;;;2251937;61;2005;-88
2021/03/15 02:49:42;57611.00;0.19;100.35;0.00;0.00;0.62;;;;;8.50;1.00;;;;;;2251969;61;1647;-86
2021/03/15 02:52:11;120373232.00;401.24;70655800.00;120161232.00;400.54;70282800.00;;;;;8.50;1.00;;;;;;2251845;61;1068;-86
2021/03/15 02:54:39;32902.00;0.11;57.61;0.00;0.00;0.62;;;;;8.70;1.00;;;;;;2251805;61;1382;-87
2021/03/15 02:57:08;238156.00;0.79;411.58;0.00;0.00;0.62;;;;;8.60;1.00;;;;;;2245334;61;1208;-87
2021/03/15 02:59:37;0.00;0.00;0.62;0.00;0.00;0.62;;;;;8.20;1.00;;;;;;2251872;61;1019;-87
2021/03/15 03:02:05;51035.00;0.17;88.98;0.00;0.00;0.62;;;;;8.50;1.00;;;;;;2243918;62;1024;-87
2021/03/15 03:07:37;115410952.00;384.70;62265876.00;115303864.00;384.35;62092556.00;;;;;8.20;1.00;;;;;;2275714;61;2010;-86
2021/03/15 03:10:07;618865.00;2.06;1066.80;0.00;0.00;0.62;;;;;7.90;1.00;;;;;;2277535;61;1261;-86
2021/03/15 03:12:35;263316.00;0.88;454.85;0.00;0.00;0.62;;;;;7.70;1.00;;;;;;2271888;61;927;-87
2021/03/15 03:15:05;158576.00;0.53;274.59;0.00;0.00;0.62;;;;;8.00;1.00;;;;;;2271617;61;1393;-87
2021/03/15 03:17:37;241289.00;0.80;416.97;0.00;0.00;0.62;;;;;7.80;1.00;;;;;;2265212;61;950;-87
2021/03/15 03:20:06;312022.00;1.04;538.59;0.00;0.00;0.62;;;;;8.10;1.00;;;;;;2271935;61;996;-87
2021/03/15 03:22:33;221339.00;0.74;382.65;0.00;0.00;0.62;;;;;8.00;1.00;;;;;;2271907;61;1129;-87
2021/03/15 03:25:00;279766.00;0.93;483.14;0.00;0.00;0.62;;;;;7.80;1.00;;;;;;2263723;61;1360;-87
2021/03/15 03:27:27;346167.00;1.15;597.27;0.00;0.00;0.62;;;;;7.40;1.00;;;;;;2263779;61;1995;-87
2021/03/15 03:29:54;415071.00;1.38;715.72;29364.00;0.10;51.48;;;;;7.60;1.00;;;;;;2265523;61;1091;-87
2021/03/15 03:32:21;519128.00;1.73;894.76;87589.00;0.29;152.14;;;;;7.00;1.00;;;;;;2271874;61;1126;-87
2021/03/15 03:34:48;435861.00;1.45;751.46;84651.00;0.28;147.07;;;;;7.50;1.00;;;;;;2271885;61;1329;-88
2021/03/15 03:37:14;525559.00;1.75;905.84;84808.00;0.28;147.34;;;;;8.20;1.00;;;;;;2271788;61;1492;-86
2021/03/15 03:39:41;514563.00;1.72;886.90;82046.00;0.27;142.57;;;;;8.00;1.00;;;;;;2271884;61;1015;-87
2021/03/15 03:42:07;490776.00;1.64;845.94;84035.00;0.28;146.01;;;;;8.00;1.00;;;;;;2272412;61;1007;-87
2021/03/15 03:44:35;570654.00;1.90;983.58;82864.00;0.28;143.98;;;;;8.30;1.00;;;;;;2276280;61;1306;-87
2021/03/15 03:47:02;442885.00;1.48;763.54;82325.00;0.27;143.05;;;;;8.60;1.00;;;;;;2276266;61;2004;-87
2021/03/15 03:49:28;421458.00;1.40;726.70;86227.00;0.29;149.79;;;;;9.60;1.00;;;;;;2276220;61;976;-86
2021/03/15 03:52:00;475805.00;1.59;820.18;84755.00;0.28;147.25;;;;;9.90;1.00;;;;;;2276242;61;1028;-85
2021/03/15 03:54:29;427753.00;1.43;737.52;83876.00;0.28;145.73;;;;;10.70;1.00;;;;;;2272544;61;1333;-85
2021/03/15 03:57:01;585728.00;1.95;1009.58;93769.00;0.31;162.82;;;;;10.90;1.00;;;;;;2276624;61;1844;-86
2021/03/15 03:59:33;451411.00;1.50;778.21;83346.00;0.28;144.82;;;;;11.00;1.00;;;;;;2267707;61;909;-85
2021/03/15 04:02:04;475293.00;1.58;819.30;81337.00;0.27;141.35;;;;;11.10;1.00;;;;;;2267780;61;1078;-86
2021/03/15 04:04:37;438869.00;1.46;756.64;83202.00;0.28;144.57;;;;;11.10;1.00;;;;;;2267730;61;1334;-85
2021/03/15 04:07:07;477476.00;1.59;823.05;90665.00;0.30;157.46;;;;;11.00;1.00;;;;;;2264345;61;1915;-86
2021/03/15 04:09:36;752794.00;2.51;1298.92;126151.00;0.42;218.69;;;;;11.00;1.00;;;;;;2267664;61;978;-86
2021/03/15 04:12:08;492019.00;1.64;848.08;76471.00;0.25;132.94;;;;;10.80;1.00;;;;;;2261039;61;946;-86
2021/03/15 04:14:40;435176.00;1.45;750.29;89798.00;0.30;155.96;;;;;10.40;1.00;;;;;;2271292;61;1399;-86
2021/03/15 04:17:12;323028.00;1.08;557.50;0.00;0.00;0.62;;;;;10.40;1.00;;;;;;2267211;61;1008;-87
2021/03/15 04:19:47;242282.00;0.81;418.68;0.00;0.00;0.62;;;;;10.50;1.00;;;;;;2276261;61;1145;-87
2021/03/15 04:22:15;610804.00;2.04;1052.88;0.00;0.00;0.62;;;;;10.50;1.00;;;;;;2275815;61;913;-87
2021/03/15 04:24:43;252776.00;0.84;436.73;0.00;0.00;0.62;;;;;10.60;1.00;;;;;;2265811;61;1340;-86
2021/03/15 04:27:12;403890.00;1.35;696.49;80540.00;0.27;139.97;;;;;10.40;1.00;;;;;;2275783;61;1923;-87
2021/03/15 04:29:40;443575.00;1.48;764.73;67473.00;0.22;117.39;;;;;10.30;1.00;;;;;;2276208;61;1149;-87
2021/03/15 04:32:10;451383.00;1.50;778.16;83047.00;0.28;144.30;;;;;10.40;1.00;;;;;;2272473;61;990;-87
2021/03/15 04:34:38;379127.00;1.26;653.92;0.00;0.00;0.62;;;;;10.50;1.00;;;;;;2276141;61;1651;-87
2021/03/15 04:37:08;128311.00;0.43;222.42;0.00;0.00;0.62;;;;;10.70;1.00;;;;;;2276189;61;1091;-85
2021/03/15 04:39:36;224786.00;0.75;388.58;0.00;0.00;0.62;;;;;11.10;1.00;;;;;;2272269;61;940;-86
2021/03/15 04:42:04;267191.00;0.89;461.51;0.00;0.00;0.62;;;;;11.70;1.00;;;;;;2268961;61;1030;-86
2021/03/15 04:44:32;248109.00;0.83;428.70;0.00;0.00;0.62;;;;;12.00;1.00;;;;;;2265642;61;1361;-87
2021/03/15 04:47:00;253086.00;0.84;437.26;0.00;0.00;0.62;;;;;12.10;1.00;;;;;;2265645;61;1993;-87
2021/03/15 04:49:29;396152.00;1.32;683.19;0.00;0.00;0.62;;;;;12.10;1.00;;;;;;2272428;61;1006;-87
2021/03/15 04:51:56;271380.00;0.90;468.72;0.00;0.00;0.62;;;;;12.00;1.00;;;;;;2268951;61;1008;-88
2021/03/15 04:54:23;513335.00;1.71;884.79;0.00;0.00;0.62;;;;;11.90;1.00;;;;;;2272327;61;1405;-87
2021/03/15 04:56:53;331798.00;1.11;572.58;0.00;0.00;0.62;;;;;11.50;1.00;;;;;;2265557;61;1020;-87
2021/03/15 04:59:20;299890.00;1.00;517.73;0.00;0.00;0.62;;;;;11.20;1.00;;;;;;2272358;61;971;-87
2021/03/15 05:01:49;507474.00;1.69;874.69;0.00;0.00;0.62;;;;;10.30;1.00;;;;;;2272326;61;1228;-88
2021/03/15 05:04:19;409028.00;1.36;705.33;33693.00;0.11;58.97;;;;;10.00;1.00;;;;;;2272314;61;1443;-87
2021/03/15 05:06:47;598045.00;1.99;1030.84;0.00;0.00;0.62;;;;;10.00;1.00;;;;;;2272395;61;1922;-87
2021/03/15 05:09:16;305091.00;1.02;526.67;0.00;0.00;0.62;;;;;9.90;1.00;;;;;;2272286;61;1099;-87
2021/03/15 05:11:44;337326.00;1.12;582.08;0.00;0.00;0.62;;;;;10.10;1.00;;;;;;2260155;61;952;-87
2021/03/15 05:14:11;491615.00;1.64;847.39;23865.00;0.08;41.96;;;;;10.30;1.00;;;;;;2258590;61;1434;-86
2021/03/15 05:16:40;502361.00;1.67;865.89;38337.00;0.13;67.01;;;;;10.70;1.00;;;;;;2268271;61;977;-87
2021/03/15 05:19:09;236038.00;0.79;407.94;0.00;0.00;0.62;;;;;11.20;1.00;;;;;;2268202;61;925;-86
2021/03/15 05:21:38;96855.00;0.32;168.14;0.00;0.00;0.62;;;;;11.80;1.00;;;;;;2261573;61;993;-86
2021/03/15 05:24:07;146717.00;0.49;254.15;0.00;0.00;0.62;;;;;12.20;1.00;;;;;;2261542;61;1337;-87
2021/03/15 05:26:38;156867.00;0.52;271.64;0.00;0.00;0.62;;;;;12.50;1.00;;;;;;2268221;61;1911;-88
2021/03/15 05:29:06;102723.00;0.34;178.27;0.00;0.00;0.62;;;;;12.80;1.00;;;;;;2269915;61;1032;-86
2021/03/15 05:31:35;140655.00;0.47;243.70;0.00;0.00;0.62;;;;;12.50;1.00;;;;;;2276323;61;1017;-86
2021/03/15 05:34:02;59922.00;0.20;104.34;0.00;0.00;0.62;;;;;12.20;1.00;;;;;;2276738;61;1451;-86
2021/03/15 05:36:30;106032.00;0.35;183.98;0.00;0.00;0.62;;;;;12.00;1.00;;;;;;2276748;61;952;-87
2021/03/15 05:38:56;178831.00;0.60;309.48;0.00;0.00;0.62;;;;;11.90;1.00;;;;;;2276767;61;939;-86
2021/03/15 05:41:41;86583.00;0.29;150.41;0.00;0.00;0.62;;;;;11.10;1.00;;;;;;2269551;61;1048;-87
2021/03/15 05:44:17;137648.00;0.46;238.52;0.00;0.00;0.62;;;;;10.70;1.00;;;;;;2276598;61;1459;-87
2021/03/15 05:47:09;86816.00;0.29;150.81;0.00;0.00;0.62;;;;;10.10;1.00;;;;;;2276632;61;2006;-86
2021/03/15 05:50:09;21036.00;0.07;37.06;0.00;0.00;0.62;;;;;9.80;1.00;;;;;;2276081;61;1721;-86
2021/03/15 05:52:47;279270.00;0.93;482.28;0.00;0.00;0.62;;;;;9.30;1.00;;;;;;2276415;61;1647;-85
2021/03/15 05:56:00;542651.00;1.81;935.29;84499.00;0.28;146.81;;;;;9.30;1.00;;;;;;2276443;61;1363;-86
2021/03/15 05:59:16;51430.00;0.17;89.66;0.00;0.00;0.62;;;;;9.70;1.00;;;;;;2274786;61;1170;-87
2021/03/15 06:02:00;120954.00;0.40;209.73;0.00;0.00;0.62;;;;;10.00;1.00;;;;;;2276607;61;1014;-87
2021/03/15 06:05:15;137728.00;0.46;238.65;0.00;0.00;0.62;;;;;10.40;1.00;;;;;;2276551;61;1334;-87
2021/03/15 06:07:46;88472.00;0.29;153.67;0.00;0.00;0.62;;;;;10.30;1.00;;;;;;2259843;61;1997;-86
2021/03/15 06:10:19;14188.00;0.05;25.20;0.00;0.00;0.62;;;;;9.80;1.00;;;;;;2259897;61;1040;-86
2021/03/15 06:12:50;39739.00;0.13;69.44;0.00;0.00;0.62;;;;;9.50;1.00;;;;;;2253271;61;983;-87
2021/03/15 06:15:26;74.00;0.00;0.75;0.00;0.00;0.62;;;;;9.70;1.00;;;;;;2250035;61;1469;-88
2021/03/15 06:17:53;53647.00;0.18;93.49;0.00;0.00;0.62;;;;;9.90;1.00;;;;;;2247963;61;1000;-88
2021/03/15 06:20:21;9479.00;0.03;17.05;0.00;0.00;0.62;;;;;9.80;1.00;;;;;;2247992;61;939;-87
2021/03/15 06:22:48;24917.00;0.08;43.78;0.00;0.00;0.62;;;;;10.00;1.00;;;;;;2239998;62;978;-87
2021/03/15 06:25:15;43864.00;0.15;76.57;0.00;0.00;0.62;;;;;9.80;1.00;;;;;;2239035;61;1387;-88
2021/03/15 06:27:42;26399.00;0.09;46.35;0.00;0.00;0.62;;;;;9.10;1.00;;;;;;2247916;61;1918;-88
2021/03/15 06:30:09;140844.00;0.47;244.03;15765.00;0.05;27.94;;;;;8.90;1.00;;;;;;2247980;61;1043;-87
2021/03/15 06:32:37;22408.00;0.07;39.44;0.00;0.00;0.62;;;;;8.60;1.00;;;;;;2244632;62;1001;-88
2021/03/15 06:35:06;0.00;0.00;0.62;0.00;0.00;0.62;;;;;8.60;1.00;;;;;;2249524;61;1402;-87
2021/03/15 06:37:34;211342.00;0.70;365.44;65237.00;0.22;113.53;;;;;8.20;1.00;;;;;;2255667;61;983;-88
2021/03/15 06:40:02;27695.00;0.09;48.59;0.00;0.00;0.62;;;;;7.80;1.00;;;;;;2256473;61;1030;-88
2021/03/15 06:42:32;182722.00;0.61;316.18;55454.00;0.18;96.62;;;;;7.30;1.00;;;;;;2259821;61;1030;-88
2021/03/15 06:44:58;19970.00;0.07;35.22;0.00;0.00;0.62;;;;;7.20;1.00;;;;;;2258802;61;1231;-88
2021/03/15 06:47:26;223.00;0.00;1.01;0.00;0.00;0.62;;;;;7.20;1.00;;;;;;2263703;61;1986;-89
2021/03/15 06:49:54;5873.00;0.02;10.80;0.00;0.00;0.62;;;;;7.30;1.00;;;;;;2259727;61;983;-88
2021/03/15 06:52:21;49109.00;0.16;85.65;0.00;0.00;0.62;;;;;7.10;1.00;;;;;;2256447;61;976;-88
2021/03/15 06:54:47;0.00;0.00;0.62;0.00;0.00;0.62;;;;;7.10;1.00;;;;;;2256949;61;1294;-88
2021/03/15 06:57:19;101168.00;0.34;175.59;0.00;0.00;0.62;;;;;7.00;1.00;;;;;;2266835;61;948;-90
2021/03/15 06:59:48;52143.00;0.17;90.89;0.00;0.00;0.62;;;;;7.00;1.00;;;;;;2263550;61;1013;-88
2021/03/15 07:02:23;109570.00;0.37;190.09;0.00;0.00;0.62;;;;;7.40;1.00;;;;;;2260289;61;966;-88
2021/03/15 07:04:50;8303.00;0.03;15.01;0.00;0.00;0.62;;;;;7.40;1.00;;;;;;2264709;61;1467;-88
2021/03/15 07:07:25;54296.00;0.18;94.62;0.00;0.00;0.62;;;;;7.40;1.00;;;;;;2263230;61;2014;-88
2021/03/15 07:09:52;9801.00;0.03;17.60;0.00;0.00;0.62;;;;;7.50;1.00;;;;;;2279206;61;1071;-88
2021/03/15 07:12:19;117149.00;0.39;203.16;0.00;0.00;0.62;;;;;7.20;1.00;;;;;;2275912;61;1009;-87
2021/03/15 07:14:47;32333.00;0.11;56.62;0.00;0.00;0.62;;;;;7.40;1.00;;;;;;2276250;61;1427;-87
2021/03/15 07:17:25;181099.00;0.60;313.38;0.00;0.00;0.62;;;;;7.90;1.00;;;;;;2276317;61;932;-87
2021/03/15 07:19:53;45608.00;0.15;79.59;0.00;0.00;0.62;;;;;7.80;1.00;;;;;;2276214;61;1692;-87
2021/03/15 07:22:22;42161.00;0.14;73.63;0.00;0.00;0.62;;;;;7.60;1.00;;;;;;2276140;61;1004;-87
2021/03/15 07:25:10;78441.00;0.26;136.34;0.00;0.00;0.62;;;;;7.40;1.00;;;;;;2272530;61;1430;-88
2021/03/15 07:27:38;35133.00;0.12;61.47;0.00;0.00;0.62;;;;;7.80;1.00;;;;;;2276276;61;1997;-88
2021/03/15 07:30:30;960.00;0.00;2.28;0.00;0.00;0.62;;;;;8.10;1.00;;;;;;2275733;61;981;-88
2021/03/15 07:33:00;13121.00;0.04;23.36;0.00;0.00;0.62;;;;;8.80;1.00;;;;;;2265586;61;1014;-87
2021/03/15 07:35:29;122546.00;0.41;212.47;0.00;0.00;0.62;;;;;8.80;1.00;;;;;;2275799;61;1524;-88
2021/03/15 07:37:56;26802.00;0.09;47.05;0.00;0.00;0.62;;;;;8.80;1.00;;;;;;2267658;61;999;-88
2021/03/15 07:40:44;0.00;0.00;0.62;0.00;0.00;0.62;;;;;9.10;1.00;;;;;;2267609;61;945;-88
2021/03/15 07:43:12;86775.00;0.29;150.74;0.00;0.00;0.62;;;;;8.60;1.00;;;;;;2267726;61;1003;-88
2021/03/15 07:45:41;152286.00;0.51;263.75;0.00;0.00;0.62;;;;;8.60;1.00;;;;;;2266526;61;1364;-86
2021/03/15 07:48:17;225961.00;0.75;390.60;0.00;0.00;0.62;;;;;8.40;1.00;;;;;;2267267;61;2062;-88
2021/03/15 07:50:55;113772.00;0.38;197.34;0.00;0.00;0.62;;;;;8.60;1.00;;;;;;2267641;61;1105;-89
2021/03/15 07:53:38;11014.00;0.04;19.71;0.00;0.00;0.62;;;;;8.90;1.00;;;;;;2257776;61;990;-87
2021/03/15 07:56:07;54823.00;0.18;95.53;0.00;0.00;0.62;;;;;8.30;1.00;;;;;;2272245;61;1033;-88
2021/03/15 07:58:34;101874.00;0.34;176.81;0.00;0.00;0.62;;;;;8.00;1.00;;;;;;2269009;61;1049;-87
2021/03/15 08:01:03;198373.00;0.66;343.12;0.00;0.00;0.62;;;;;8.10;1.00;;;;;;2275656;61;939;-88
2021/03/15 08:03:30;139931.00;0.47;242.45;0.00;0.00;0.62;;;;;8.20;1.00;;;;;;2276191;61;1448;-88
2021/03/15 08:05:59;140700.00;0.47;243.78;0.00;0.00;0.62;;;;;8.20;1.00;;;;;;2276141;61;1173;-88
2021/03/15 08:08:26;180556.00;0.60;312.45;0.00;0.00;0.62;;;;;8.10;1.00;;;;;;2275635;61;2008;-86
2021/03/15 08:10:53;317417.00;1.06;547.86;0.00;0.00;0.62;;;;;8.30;1.00;;;;;;2275505;61;1043;-88
2021/03/15 08:13:22;0.00;0.00;0.62;0.00;0.00;0.62;;;;;7.90;1.00;;;;;;2269096;61;971;-88
2021/03/15 08:15:50;155172.00;0.52;268.72;0.00;0.00;0.62;;;;;8.00;1.00;;;;;;2276330;61;1391;-86
2021/03/15 08:18:22;34539.00;0.12;60.44;0.00;0.00;0.62;;;;;8.20;1.00;;;;;;2269513;61;981;-88
2021/03/15 08:20:52;113328.00;0.38;196.57;0.00;0.00;0.62;;;;;8.40;1.00;;;;;;2269392;61;1068;-87
2021/03/15 08:23:20;143966.00;0.48;249.41;0.00;0.00;0.62;;;;;9.10;1.00;;;;;;2276041;61;1491;-86
2021/03/15 08:25:49;3910.00;0.01;7.40;0.00;0.00;0.62;;;;;9.10;1.00;;;;;;2276173;61;1784;-86
2021/03/15 08:28:18;0.00;0.00;0.62;0.00;0.00;0.62;;;;;8.80;1.00;;;;;;2272963;61;1919;-89
2021/03/15 08:30:55;0.00;0.00;0.62;0.00;0.00;0.62;;;;;8.60;1.00;;;;;;2276827;61;936;-87
2021/03/15 08:33:22;0.00;0.00;0.62;0.00;0.00;0.62;;;;;8.70;1.00;;;;;;2276280;61;1005;-87
2021/03/15 08:35:54;60811.00;0.20;105.88;0.00;0.00;0.62;;;;;8.50;1.00;;;;;;2266340;61;1273;-89
2021/03/15 08:38:30;47852.00;0.16;83.47;0.00;0.00;0.62;;;;;8.90;1.00;;;;;;2273068;61;992;-88
2021/03/15 08:41:02;238.00;0.00;1.03;0.00;0.00;0.62;;;;;9.10;1.00;;;;;;2264132;61;1037;-89
2021/03/15 08:43:48;0.00;0.00;0.62;0.00;0.00;0.62;;;;;9.60;1.00;;;;;;2267412;61;1455;-88
2021/03/15 08:46:20;0.00;0.00;0.62;0.00;0.00;0.62;;;;;8.90;1.00;;;;;;2261001;61;1035;-87
2021/03/15 08:49:00;0.00;0.00;0.62;0.00;0.00;0.62;;;;;9.20;1.00;;;;;;2268072;61;1920;-89
2021/03/15 08:51:50;21257.00;0.07;37.45;0.00;0.00;0.62;;;;;9.40;1.00;;;;;;2267980;61;983;-89
2021/03/15 09:32:59;46761.00;0.16;81.58;0.00;0.00;0.62;;;;;10.00;1.00;;;;;;2286452;60;1341;-91
2021/03/15 09:48:25;259072.00;0.86;447.55;0.00;0.00;0.62;;;;;9.90;1.00;;;;;;2282140;61;1964;-87
2021/03/15 09:50:53;0.00;0.00;0.62;0.00;0.00;0.62;;;;;10.20;1.00;;;;;;2280588;61;981;-86
2021/03/15 09:53:21;0.00;0.00;0.62;0.00;0.00;0.62;;;;;10.30;1.00;;;;;;2280509;61;1011;-86
2021/03/15 09:55:48;0.00;0.00;0.62;0.00;0.00;0.62;;;;;10.10;1.00;;;;;;2280546;61;1315;-86
2021/03/15 09:58:17;0.00;0.00;0.62;0.00;0.00;0.62;;;;;10.40;1.00;;;;;;2280586;61;1006;-87
2021/03/15 10:00:44;7613.00;0.03;13.81;0.00;0.00;0.62;;;;;10.50;1.00;;;;;;2276025;61;951;-85
2021/03/15 10:03:20;9822.00;0.03;17.64;0.00;0.00;0.62;;;;;10.70;1.00;;;;;;2276156;61;1050;-87
2021/03/15 10:05:48;0.00;0.00;0.62;0.00;0.00;0.62;;;;;10.80;1.00;;;;;;2266162;61;1421;-86
2021/03/15 10:08:14;0.00;0.00;0.62;0.00;0.00;0.62;;;;;10.70;1.00;;;;;;2276121;61;1986;-87
2021/03/15 10:10:41;0.00;0.00;0.62;0.00;0.00;0.62;;;;;10.50;1.00;;;;;;2269364;61;938;-88
2021/03/15 10:13:08;40030.00;0.13;69.94;0.00;0.00;0.62;;;;;10.70;1.00;;;;;;2276077;61;1126;-87
2021/03/15 10:15:35;58787.00;0.20;102.38;0.00;0.00;0.62;;;;;10.80;1.00;;;;;;2276051;61;1421;-87
2021/03/15 10:18:01;2140.00;0.01;4.33;0.00;0.00;0.62;;;;;10.90;1.00;;;;;;2276915;61;1028;-87
2021/03/15 10:20:30;124456.00;0.41;215.77;0.00;0.00;0.62;;;;;11.00;1.00;;;;;;2280608;61;1005;-87
2021/03/15 10:23:08;65011.00;0.22;113.14;0.00;0.00;0.62;;;;;11.20;1.00;;;;;;2280442;61;1016;-85
2021/03/15 10:25:35;27188.00;0.09;47.72;0.00;0.00;0.62;;;;;11.30;1.00;;;;;;2276790;61;1474;-86
2021/03/15 10:28:01;20802.00;0.07;36.66;0.00;0.00;0.62;;;;;11.70;1.00;;;;;;2280459;61;1910;-85
2021/03/15 10:30:29;3316.00;0.01;6.37;0.00;0.00;0.62;;;;;11.70;1.00;;;;;;2280590;61;1110;-85
2021/03/15 10:32:56;0.00;0.00;0.62;0.00;0.00;0.62;;;;;11.40;1.00;;;;;;2280370;61;1679;-86
2021/03/15 10:35:25;17324.00;0.06;30.64;0.00;0.00;0.62;;;;;10.70;1.00;;;;;;2280298;61;1307;-86
2021/03/15 10:37:53;23701.00;0.08;41.68;0.00;0.00;0.62;;;;;10.80;1.00;;;;;;2280488;61;1071;-86
2021/03/15 10:40:23;49213.00;0.16;85.83;0.00;0.00;0.62;;;;;11.00;1.00;;;;;;2280533;61;929;-85
2021/03/15 10:42:50;0.00;0.00;0.62;0.00;0.00;0.62;;;;;11.70;1.00;;;;;;2280470;61;1037;-87
2021/03/15 10:45:18;47107.00;0.16;82.18;0.00;0.00;0.62;;;;;11.90;1.00;;;;;;2280445;61;1369;-86
2021/03/15 10:47:44;0.00;0.00;0.62;0.00;0.00;0.62;;;;;11.70;1.00;;;;;;2280206;61;2009;-85
2021/03/15 10:50:26;0.00;0.00;0.62;0.00;0.00;0.62;;;;;11.70;1.00;;;;;;2280436;61;1125;-84
2021/03/15 10:52:52;0.00;0.00;0.62;0.00;0.00;0.62;;;;;11.90;1.00;;;;;;2280411;61;994;-85
2021/03/15 10:55:21;0.00;0.00;0.62;0.00;0.00;0.62;;;;;11.90;1.00;;;;;;2273326;61;1456;-86
2021/03/15 10:58:06;0.00;0.00;0.62;0.00;0.00;0.62;;;;;11.70;1.00;;;;;;2280428;61;1046;-86
2021/03/15 11:00:35;0.00;0.00;0.62;0.00;0.00;0.62;;;;;11.70;1.00;;;;;;2276651;61;1035;-85
2021/03/15 11:03:02;0.00;0.00;0.62;0.00;0.00;0.62;;;;;12.10;1.00;;;;;;2280459;61;1027;-85
2021/03/15 11:05:29;18506.00;0.06;32.68;0.00;0.00;0.62;;;;;12.20;1.00;;;;;;2279750;61;1305;-86
2021/03/15 11:07:56;0.00;0.00;0.62;0.00;0.00;0.62;;;;;12.00;1.00;;;;;;2280432;61;1988;-86
2021/03/15 11:10:25;0.00;0.00;0.62;0.00;0.00;0.62;;;;;11.90;1.00;;;;;;2280368;61;1119;-88
2021/03/15 11:12:54;0.00;0.00;0.62;0.00;0.00;0.62;;;;;11.60;1.00;;;;;;2280414;61;1136;-87
2021/03/15 11:15:32;46830.00;0.16;81.70;0.00;0.00;0.62;;;;;11.60;1.00;;;;;;2279834;61;1665;-87
2021/03/15 11:18:10;0.00;0.00;0.62;0.00;0.00;0.62;;;;;11.60;1.00;;;;;;2280373;61;1030;-86
2021/03/15 11:20:53;15474.00;0.05;27.43;0.00;0.00;0.62;;;;;11.80;1.00;;;;;;2280387;61;1109;-86
2021/03/15 11:23:32;0.00;0.00;0.62;0.00;0.00;0.62;;;;;11.60;1.00;;;;;;2280363;61;1064;-86